createdAt,value
2023-03-17T00:01:03.927Z,3.84
2023-03-17T00:02:43.652Z,3.83
2023-03-17T00:04:23.434Z,3.83
2023-03-17T00:06:03.199Z,3.8
2023-03-17T00:07:42.893Z,3.79
2023-03-17T00:09:22.666Z,3.77
2023-03-17T00:11:02.452Z,3.76
2023-03-17T00:12:42.187Z,3.73
2023-03-17T00:14:21.988Z,3.73
2023-03-17T00:16:01.727Z,3.71
2023-03-17T00:17:41.598Z,3.69
2023-03-17T00:19:21.288Z,3.71
2023-03-17T00:21:01.038Z,3.67
2023-03-17T00:22:40.811Z,3.66
2023-03-17T00:24:20.544Z,3.66
2023-03-17T00:26:00.311Z,3.65
2023-03-17T00:27:40.058Z,3.64
2023-03-17T00:29:19.830Z,3.63
2023-03-17T00:30:59.603Z,3.62
2023-03-17T00:32:39.354Z,3.61
2023-03-17T00:34:19.116Z,3.6
2023-03-17T00:35:58.895Z,3.59
2023-03-17T00:37:38.733Z,3.56
2023-03-17T00:39:18.615Z,3.56
2023-03-17T00:40:58.369Z,3.53
2023-03-17T00:42:38.007Z,3.54
2023-03-17T00:44:17.725Z,3.52
2023-03-17T00:45:57.491Z,3.49
2023-03-17T00:47:37.228Z,3.49
2023-03-17T00:49:18.210Z,3.47
2023-03-17T00:50:56.778Z,3.47
2023-03-17T00:52:36.546Z,3.45
2023-03-17T00:54:16.420Z,3.43
2023-03-17T00:55:56.078Z,3.44
2023-03-17T00:57:35.943Z,3.42
2023-03-17T00:59:15.580Z,3.43
2023-03-17T01:00:55.346Z,3.43
2023-03-17T01:02:35.090Z,3.42
2023-03-17T01:04:14.883Z,3.43
2023-03-17T01:05:54.635Z,3.42
2023-03-17T01:07:34.411Z,3.41
2023-03-17T01:09:14.151Z,3.42
2023-03-17T01:10:53.919Z,3.41
2023-03-17T01:12:33.700Z,3.42
2023-03-17T01:14:13.448Z,3.4
2023-03-17T01:15:53.262Z,3.39
2023-03-17T01:17:32.979Z,3.39
2023-03-17T01:19:12.736Z,3.41
2023-03-17T01:20:52.570Z,3.4
2023-03-17T01:22:32.263Z,3.39
2023-03-17T01:24:12.132Z,3.38
2023-03-17T01:25:51.794Z,3.39
2023-03-17T01:27:31.548Z,3.37
2023-03-17T01:29:11.335Z,3.37
2023-03-17T01:30:51.189Z,3.37
2023-03-17T01:32:30.847Z,3.35
2023-03-17T01:34:10.636Z,3.36
2023-03-17T01:35:50.374Z,3.35
2023-03-17T01:37:30.149Z,3.34
2023-03-17T01:39:09.902Z,3.34
2023-03-17T01:40:49.717Z,3.31
2023-03-17T01:42:29.436Z,3.32
2023-03-17T01:44:09.194Z,3.32
2023-03-17T01:45:48.960Z,3.31
2023-03-17T01:47:28.722Z,3.28
2023-03-17T01:49:08.478Z,3.3
2023-03-17T01:50:48.254Z,3.31
2023-03-17T01:52:28.101Z,3.29
2023-03-17T01:54:07.776Z,3.28
2023-03-17T01:55:47.555Z,3.31
2023-03-17T01:57:27.319Z,3.29
2023-03-17T01:59:07.122Z,3.29
2023-03-17T02:02:26.597Z,3.26
2023-03-17T02:04:06.359Z,3.26
2023-03-17T02:05:46.141Z,3.26
2023-03-17T02:07:25.901Z,3.23
2023-03-17T02:09:05.665Z,3.21
2023-03-17T02:10:45.585Z,3.2
2023-03-17T02:12:25.181Z,3.21
2023-03-17T02:14:04.937Z,3.2
2023-03-17T02:15:44.774Z,3.18
2023-03-17T02:17:24.516Z,3.19
2023-03-17T02:19:04.274Z,3.18
2023-03-17T02:20:44.040Z,3.16
2023-03-17T02:22:23.782Z,3.13
2023-03-17T02:24:03.573Z,3.13
2023-03-17T02:25:43.288Z,3.11
2023-03-17T02:27:23.218Z,3.13
2023-03-17T02:29:02.816Z,3.1
2023-03-17T02:30:42.582Z,3.08
2023-03-17T02:32:22.344Z,3.1
2023-03-17T02:34:02.150Z,3.06
2023-03-17T02:35:41.881Z,3.09
2023-03-17T02:37:21.710Z,3.07
2023-03-17T02:39:01.405Z,3.07
2023-03-17T02:40:41.192Z,3.08
2023-03-17T02:42:20.944Z,3.06
2023-03-17T02:44:00.726Z,3.07
2023-03-17T02:45:40.508Z,3.09
2023-03-17T02:47:20.237Z,3.08
2023-03-17T02:49:00.000Z,3.07
2023-03-17T02:50:39.823Z,3.05
2023-03-17T02:52:19.519Z,3.07
2023-03-17T02:53:59.276Z,3.06
2023-03-17T02:55:39.059Z,3.05
2023-03-17T02:57:18.838Z,3.05
2023-03-17T02:58:58.687Z,3.04
2023-03-17T03:00:38.527Z,3.04
2023-03-17T03:02:18.108Z,3.04
2023-03-17T03:03:57.877Z,3.03
2023-03-17T03:05:37.632Z,3.03
2023-03-17T03:07:17.424Z,3.04
2023-03-17T03:08:57.162Z,3.05
2023-03-17T03:10:36.934Z,3.05
2023-03-17T03:12:16.688Z,3.04
2023-03-17T03:13:56.459Z,3.04
2023-03-17T03:15:36.250Z,3.05
2023-03-17T03:17:15.981Z,3.07
2023-03-17T03:18:55.746Z,3.05
2023-03-17T03:20:35.591Z,3.07
2023-03-17T03:22:15.272Z,3.07
2023-03-17T03:23:55.041Z,3.06
2023-03-17T03:25:34.794Z,3.07
2023-03-17T03:27:14.569Z,3.07
2023-03-17T03:28:54.324Z,3.06
2023-03-17T03:30:34.255Z,3.05
2023-03-17T03:32:13.996Z,3.05
2023-03-17T03:33:53.665Z,3.04
2023-03-17T03:35:33.387Z,3.03
2023-03-17T03:37:13.185Z,3.03
2023-03-17T03:38:52.951Z,3.03
2023-03-17T03:40:32.778Z,3.02
2023-03-17T03:42:12.426Z,3.02
2023-03-17T03:43:52.203Z,3
2023-03-17T03:45:32.046Z,3.01
2023-03-17T03:47:11.732Z,3.01
2023-03-17T03:48:51.554Z,2.99
2023-03-17T03:50:31.257Z,3
2023-03-17T03:52:11.017Z,3
2023-03-17T03:53:50.783Z,3
2023-03-17T03:55:30.541Z,2.97
2023-03-17T03:57:10.421Z,2.97
2023-03-17T03:58:50.100Z,2.99
2023-03-17T04:00:29.825Z,2.98
2023-03-17T04:02:09.597Z,2.98
2023-03-17T04:03:49.362Z,2.95
2023-03-17T04:05:29.120Z,2.97
2023-03-17T04:07:08.891Z,2.96
2023-03-17T04:08:48.667Z,2.96
2023-03-17T04:10:28.508Z,2.96
2023-03-17T04:12:08.184Z,2.94
2023-03-17T04:13:47.950Z,2.93
2023-03-17T04:15:27.695Z,2.91
2023-03-17T04:17:07.556Z,2.91
2023-03-17T04:18:47.249Z,2.92
2023-03-17T04:20:27.127Z,2.92
2023-03-17T04:22:06.873Z,2.9
2023-03-17T04:23:46.514Z,2.87
2023-03-17T04:25:26.287Z,2.9
2023-03-17T04:27:06.063Z,2.89
2023-03-17T04:28:45.837Z,2.87
2023-03-17T04:30:25.609Z,2.87
2023-03-17T04:32:05.360Z,2.86
2023-03-17T04:33:45.124Z,2.84
2023-03-17T04:35:24.874Z,2.82
2023-03-17T04:37:04.641Z,2.82
2023-03-17T04:38:44.553Z,2.81
2023-03-17T04:40:24.162Z,2.77
2023-03-17T04:42:03.920Z,2.78
2023-03-17T04:43:43.696Z,2.78
2023-03-17T04:45:23.455Z,2.76
2023-03-17T04:47:03.210Z,2.76
2023-03-17T04:48:42.986Z,2.75
2023-03-17T04:50:22.866Z,2.76
2023-03-17T04:52:02.511Z,2.73
2023-03-17T04:53:42.285Z,2.72
2023-03-17T04:55:22.050Z,2.69
2023-03-17T04:57:01.811Z,2.68
2023-03-17T04:58:41.559Z,2.67
2023-03-17T05:00:21.518Z,2.66
2023-03-17T05:02:01.080Z,2.66
2023-03-17T05:03:40.852Z,2.67
2023-03-17T05:05:20.642Z,2.69
2023-03-17T05:07:00.393Z,2.66
2023-03-17T05:08:40.153Z,2.66
2023-03-17T05:10:20.111Z,2.68
2023-03-17T05:11:59.687Z,2.66
2023-03-17T05:13:39.611Z,2.68
2023-03-17T05:15:19.198Z,2.69
2023-03-17T05:16:59.027Z,2.7
2023-03-17T05:18:38.725Z,2.69
2023-03-17T05:20:18.529Z,2.7
2023-03-17T05:21:58.379Z,2.7
2023-03-17T05:23:38.015Z,2.68
2023-03-17T05:25:17.779Z,2.7
2023-03-17T05:26:57.553Z,2.72
2023-03-17T05:28:37.294Z,2.75
2023-03-17T05:30:17.100Z,2.71
2023-03-17T05:31:57.044Z,2.71
2023-03-17T05:33:36.630Z,2.67
2023-03-17T05:35:16.373Z,2.72
2023-03-17T05:36:56.136Z,2.73
2023-03-17T05:38:35.911Z,2.73
2023-03-17T05:40:15.664Z,2.72
2023-03-17T05:41:55.429Z,2.73
2023-03-17T05:43:35.236Z,2.73
2023-03-17T05:45:14.950Z,2.69
2023-03-17T05:46:54.764Z,2.72
2023-03-17T05:48:34.512Z,2.76
2023-03-17T05:50:14.250Z,2.74
2023-03-17T05:51:54.014Z,2.71
2023-03-17T05:53:33.829Z,2.75
2023-03-17T05:55:13.526Z,2.77
2023-03-17T05:56:53.294Z,2.74
2023-03-17T05:58:33.064Z,2.71
2023-03-17T06:00:12.896Z,2.74
2023-03-17T06:01:52.650Z,2.76
2023-03-17T06:03:32.379Z,2.78
2023-03-17T06:05:12.111Z,2.8
2023-03-17T06:06:51.875Z,2.84
2023-03-17T06:08:31.650Z,2.81
2023-03-17T06:10:11.418Z,2.83
2023-03-17T06:11:51.180Z,2.79
2023-03-17T06:13:30.969Z,2.81
2023-03-17T06:15:10.760Z,2.84
2023-03-17T06:16:50.454Z,2.81
2023-03-17T06:18:30.224Z,2.84
2023-03-17T06:20:10.038Z,2.86
2023-03-17T06:21:49.765Z,2.84
2023-03-17T06:23:29.551Z,2.85
2023-03-17T06:25:09.312Z,2.85
2023-03-17T06:26:49.068Z,2.87
2023-03-17T06:28:28.839Z,2.86
2023-03-17T06:30:08.597Z,2.88
2023-03-17T06:31:48.371Z,2.87
2023-03-17T06:33:28.260Z,2.9
2023-03-17T06:35:07.951Z,2.9
2023-03-17T06:36:47.611Z,2.9
2023-03-17T06:38:27.408Z,2.92
2023-03-17T06:40:07.185Z,2.93
2023-03-17T06:41:46.928Z,2.96
2023-03-17T06:43:26.706Z,2.91
2023-03-17T06:45:06.441Z,2.98
2023-03-17T06:46:46.228Z,2.95
2023-03-17T06:48:25.970Z,2.95
2023-03-17T06:50:05.743Z,3
2023-03-17T06:51:45.499Z,2.98
2023-03-17T06:53:25.261Z,3
2023-03-17T06:55:05.038Z,2.99
2023-03-17T06:56:44.851Z,3.07
2023-03-17T06:58:24.629Z,3.02
2023-03-17T07:00:04.335Z,3.04
2023-03-17T07:01:44.094Z,3.08
2023-03-17T07:03:23.910Z,3.06
2023-03-17T07:05:03.622Z,3.15
2023-03-17T07:06:43.379Z,3.17
2023-03-17T07:08:23.140Z,3.19
2023-03-17T07:10:02.924Z,3.22
2023-03-17T07:11:42.684Z,3.2
2023-03-17T07:13:22.602Z,3.28
2023-03-17T07:15:02.275Z,3.31
2023-03-17T07:16:41.981Z,3.33
2023-03-17T07:18:21.788Z,3.37
2023-03-17T07:20:01.511Z,3.39
2023-03-17T07:21:41.312Z,3.41
2023-03-17T07:23:21.025Z,3.41
2023-03-17T07:25:00.806Z,3.45
2023-03-17T07:26:40.536Z,3.5
2023-03-17T07:28:20.326Z,3.52
2023-03-17T07:30:00.129Z,3.6
2023-03-17T07:31:39.846Z,3.62
2023-03-17T07:33:19.616Z,3.68
2023-03-17T07:34:59.361Z,3.75
2023-03-17T07:36:39.134Z,3.79
2023-03-17T07:38:18.919Z,3.86
2023-03-17T07:39:58.672Z,3.91
2023-03-17T07:41:38.411Z,4.01
2023-03-17T07:43:18.176Z,4.14
2023-03-17T07:44:58.024Z,4.17
2023-03-17T07:46:37.714Z,4.27
2023-03-17T07:48:17.524Z,4.36
2023-03-17T07:49:57.262Z,4.42
2023-03-17T07:51:37.003Z,4.48
2023-03-17T07:53:16.777Z,4.54
2023-03-17T07:54:56.537Z,4.6
2023-03-17T07:56:36.345Z,4.66
2023-03-17T07:58:16.060Z,4.67
2023-03-17T07:59:55.849Z,4.69
2023-03-17T08:01:35.780Z,4.71
2023-03-17T08:03:15.496Z,4.73
2023-03-17T08:04:55.213Z,4.76
2023-03-17T08:06:34.935Z,4.83
2023-03-17T08:08:14.670Z,4.87
2023-03-17T08:09:54.455Z,4.94
2023-03-17T08:11:34.154Z,4.98
2023-03-17T08:13:13.980Z,5.13
2023-03-17T08:14:53.686Z,5.17
2023-03-17T08:16:33.464Z,5.26
2023-03-17T08:18:13.228Z,5.38
2023-03-17T08:19:53.005Z,5.44
2023-03-17T08:21:32.830Z,5.55
2023-03-17T08:23:12.513Z,5.65
2023-03-17T08:24:52.274Z,5.71
2023-03-17T08:26:32.072Z,5.79
2023-03-17T08:28:11.808Z,5.85
2023-03-17T08:29:51.587Z,5.88
2023-03-17T08:31:31.370Z,5.91
2023-03-17T08:33:11.225Z,5.99
2023-03-17T08:34:50.983Z,6.03
2023-03-17T08:36:30.698Z,6.12
2023-03-17T08:38:10.405Z,6.15
2023-03-17T08:39:50.149Z,6.21
2023-03-17T08:41:29.915Z,6.24
2023-03-17T08:43:09.692Z,6.31
2023-03-17T08:44:49.448Z,6.35
2023-03-17T08:46:29.217Z,6.41
2023-03-17T08:48:09.063Z,6.45
2023-03-17T08:49:48.956Z,6.53
2023-03-17T08:51:28.509Z,6.52
2023-03-17T08:53:08.276Z,6.59
2023-03-17T08:54:48.120Z,6.64
2023-03-17T08:56:27.799Z,6.68
2023-03-17T08:58:07.563Z,6.7
2023-03-17T08:59:47.334Z,6.72
2023-03-17T09:01:27.097Z,6.72
2023-03-17T09:03:07.011Z,6.81
2023-03-17T09:04:46.618Z,6.79
2023-03-17T09:06:26.374Z,6.85
2023-03-17T09:08:06.273Z,6.88
2023-03-17T09:09:45.902Z,6.91
2023-03-17T09:11:25.654Z,6.91
2023-03-17T09:13:05.463Z,6.96
2023-03-17T09:14:45.342Z,6.98
2023-03-17T09:16:25.004Z,7.01
2023-03-17T09:18:04.746Z,7.04
2023-03-17T09:19:44.569Z,7.1
2023-03-17T09:21:24.647Z,7.09
2023-03-17T09:23:04.114Z,7.12
2023-03-17T09:24:43.847Z,7.16
2023-03-17T09:26:23.525Z,7.17
2023-03-17T09:28:03.356Z,7.2
2023-03-17T09:29:43.079Z,7.23
2023-03-17T09:31:22.841Z,7.24
2023-03-17T09:33:02.605Z,7.29
2023-03-17T09:34:42.373Z,7.3
2023-03-17T09:36:22.127Z,7.33
2023-03-17T09:38:01.891Z,7.37
2023-03-17T09:39:41.666Z,7.41
2023-03-17T09:41:21.395Z,7.44
2023-03-17T09:43:01.241Z,7.48
2023-03-17T09:44:41.012Z,7.49
2023-03-17T09:46:20.699Z,7.57
2023-03-17T09:48:00.510Z,7.62
2023-03-17T09:49:40.294Z,7.65
2023-03-17T09:51:20.108Z,7.69
2023-03-17T09:52:59.769Z,7.75
2023-03-17T09:54:39.540Z,7.77
2023-03-17T09:56:19.625Z,7.79
2023-03-17T09:57:59.081Z,7.88
2023-03-17T09:59:38.822Z,7.96
2023-03-17T10:01:18.581Z,8.06
2023-03-17T10:02:58.345Z,8.08
2023-03-17T10:04:38.127Z,8.18
2023-03-17T10:06:17.878Z,8.28
2023-03-17T10:07:57.631Z,8.26
2023-03-17T10:09:37.423Z,8.38
2023-03-17T10:11:17.246Z,8.43
2023-03-17T10:12:56.927Z,8.51
2023-03-17T10:14:36.700Z,8.56
2023-03-17T10:16:16.487Z,8.6
2023-03-17T10:17:56.372Z,8.68
2023-03-17T10:19:36.056Z,8.72
2023-03-17T10:21:15.758Z,8.8
2023-03-17T10:22:55.624Z,8.84
2023-03-17T10:24:35.277Z,8.89
2023-03-17T10:26:15.037Z,8.93
2023-03-17T10:27:54.843Z,9
2023-03-17T10:29:34.620Z,9.07
2023-03-17T10:31:14.335Z,9.14
2023-03-17T10:32:54.088Z,9.18
2023-03-17T10:34:33.919Z,9.24
2023-03-17T10:36:13.644Z,9.28
2023-03-17T10:37:53.415Z,9.33
2023-03-17T10:39:33.222Z,9.37
2023-03-17T10:41:13.004Z,9.39
2023-03-17T10:42:52.937Z,9.43
2023-03-17T10:44:32.561Z,9.47
2023-03-17T10:46:12.384Z,9.55
2023-03-17T10:47:52.026Z,9.56
2023-03-17T10:49:31.870Z,9.6
2023-03-17T10:51:11.709Z,9.68
2023-03-17T10:52:51.285Z,9.71
2023-03-17T10:54:31.189Z,9.76
2023-03-17T10:56:11.024Z,9.82
2023-03-17T10:57:50.649Z,9.87
2023-03-17T10:59:30.338Z,9.89
2023-03-17T11:01:10.263Z,9.96
2023-03-17T11:02:50.029Z,9.99
2023-03-17T11:04:29.604Z,10.03
2023-03-17T11:06:09.534Z,10.1
2023-03-17T11:07:49.356Z,10.14
2023-03-17T11:09:29.070Z,10.18
2023-03-17T11:11:08.843Z,10.2
2023-03-17T11:12:48.670Z,10.29
2023-03-17T11:14:28.421Z,10.34
2023-03-17T11:16:08.109Z,10.36
2023-03-17T11:17:47.994Z,10.39
2023-03-17T11:19:27.637Z,10.45
2023-03-17T11:21:07.435Z,10.47
2023-03-17T11:22:47.168Z,10.51
2023-03-17T11:24:26.960Z,10.55
2023-03-17T11:26:06.552Z,10.62
2023-03-17T11:27:46.462Z,10.64
2023-03-17T11:29:26.082Z,10.69
2023-03-17T11:31:06.018Z,10.72
2023-03-17T11:32:45.727Z,10.75
2023-03-17T11:34:25.575Z,10.79
2023-03-17T11:36:05.324Z,10.79
2023-03-17T11:37:45.033Z,10.81
2023-03-17T11:39:24.839Z,10.88
2023-03-17T11:41:04.620Z,10.9
2023-03-17T11:42:44.407Z,10.94
2023-03-17T11:44:24.089Z,10.96
2023-03-17T11:46:03.876Z,11.01
2023-03-17T11:47:43.612Z,11.03
2023-03-17T11:49:23.435Z,11.04
2023-03-17T11:51:03.222Z,11.05
2023-03-17T11:52:42.918Z,11.11
2023-03-17T11:54:22.718Z,11.15
2023-03-17T11:56:02.484Z,11.17
2023-03-17T11:57:42.197Z,11.19
2023-03-17T11:59:21.985Z,11.25
2023-03-17T12:01:01.779Z,11.29
2023-03-17T12:02:41.536Z,11.32
2023-03-17T12:04:21.305Z,11.37
2023-03-17T12:06:01.052Z,11.41
2023-03-17T12:07:41.360Z,11.44
2023-03-17T12:09:20.614Z,11.46
2023-03-17T12:11:00.341Z,11.48
2023-03-17T12:12:40.097Z,11.5
2023-03-17T12:14:19.818Z,11.53
2023-03-17T12:15:59.613Z,11.49
2023-03-17T12:17:39.408Z,11.58
2023-03-17T12:19:19.221Z,11.6
2023-03-17T12:20:58.904Z,11.58
2023-03-17T12:22:38.737Z,11.66
2023-03-17T12:24:18.311Z,11.7
2023-03-17T12:25:58.218Z,11.74
2023-03-17T12:27:37.985Z,11.77
2023-03-17T12:29:17.711Z,11.82
2023-03-17T12:30:57.455Z,11.82
2023-03-17T12:32:37.112Z,11.92
2023-03-17T12:34:16.860Z,11.95
2023-03-17T12:35:56.627Z,12
2023-03-17T12:37:36.532Z,12.03
2023-03-17T12:39:16.177Z,12.08
2023-03-17T12:40:56.010Z,12.12
2023-03-17T12:42:35.698Z,12.15
2023-03-17T12:44:15.535Z,12.18
2023-03-17T12:45:55.211Z,12.19
2023-03-17T12:47:35.088Z,12.24
2023-03-17T12:49:14.776Z,12.26
2023-03-17T12:50:54.602Z,12.26
2023-03-17T12:52:34.304Z,12.3
2023-03-17T12:54:14.036Z,12.33
2023-03-17T12:55:53.891Z,12.35
2023-03-17T12:57:33.565Z,12.38
2023-03-17T12:59:13.324Z,12.42
2023-03-17T13:00:53.102Z,12.43
2023-03-17T13:02:32.947Z,12.45
2023-03-17T13:04:12.600Z,12.46
2023-03-17T13:05:52.375Z,12.48
2023-03-17T13:07:32.208Z,12.51
2023-03-17T13:09:11.956Z,12.52
2023-03-17T13:10:52.026Z,12.53
2023-03-17T13:12:31.442Z,12.55
2023-03-17T13:14:11.254Z,12.58
2023-03-17T13:15:50.957Z,12.58
2023-03-17T13:17:30.784Z,12.61
2023-03-17T13:19:10.474Z,12.58
2023-03-17T13:20:50.259Z,12.59
2023-03-17T13:22:29.998Z,12.64
2023-03-17T13:24:09.880Z,12.63
2023-03-17T13:25:49.538Z,12.64
2023-03-17T13:27:29.350Z,12.65
2023-03-17T13:29:09.087Z,12.65
2023-03-17T13:30:48.828Z,12.65
2023-03-17T13:32:28.627Z,12.65
2023-03-17T13:34:08.442Z,12.64
2023-03-17T13:35:48.140Z,12.69
2023-03-17T13:37:28.004Z,12.68
2023-03-17T13:39:07.647Z,12.69
2023-03-17T13:40:47.475Z,12.67
2023-03-17T13:42:27.264Z,12.7
2023-03-17T13:44:06.945Z,12.73
2023-03-17T13:45:46.731Z,12.72
2023-03-17T13:47:26.468Z,12.69
2023-03-17T13:49:06.270Z,12.76
2023-03-17T13:50:46.030Z,12.72
2023-03-17T13:52:25.832Z,12.81
2023-03-17T13:54:05.525Z,12.81
2023-03-17T13:55:45.423Z,12.81
2023-03-17T13:57:25.054Z,12.87
2023-03-17T13:59:04.863Z,12.85
2023-03-17T14:00:44.570Z,12.9
2023-03-17T14:02:24.333Z,12.9
2023-03-17T14:04:04.128Z,12.94
2023-03-17T14:05:44.058Z,12.93
2023-03-17T14:07:23.636Z,12.97
2023-03-17T14:09:03.448Z,12.98
2023-03-17T14:10:43.157Z,13
2023-03-17T14:12:22.956Z,13.02
2023-03-17T14:14:02.707Z,13.04
2023-03-17T14:15:42.446Z,13.08
2023-03-17T14:17:22.356Z,13.11
2023-03-17T14:19:02.011Z,13.15
2023-03-17T14:20:41.847Z,13.19
2023-03-17T14:22:21.522Z,13.19
2023-03-17T14:24:01.292Z,13.17
2023-03-17T14:25:41.196Z,13.21
2023-03-17T14:27:20.813Z,13.19
2023-03-17T14:29:00.665Z,13.18
2023-03-17T14:30:40.398Z,13.12
2023-03-17T14:32:20.104Z,13.1
2023-03-17T14:33:59.862Z,13.15
2023-03-17T14:35:39.789Z,13.15
2023-03-17T14:37:19.395Z,13.16
2023-03-17T14:38:59.229Z,13.16
2023-03-17T14:40:38.950Z,13.1
2023-03-17T14:42:18.685Z,13.17
2023-03-17T14:43:58.571Z,13.16
2023-03-17T14:45:38.284Z,13.16
2023-03-17T14:47:18.053Z,13.2
2023-03-17T14:48:57.791Z,13.2
2023-03-17T14:50:37.554Z,13.22
2023-03-17T14:52:17.373Z,13.21
2023-03-17T14:53:57.128Z,13.21
2023-03-17T14:55:36.846Z,13.22
2023-03-17T14:57:16.612Z,13.2
2023-03-17T14:58:56.491Z,13.18
2023-03-17T15:00:36.154Z,13.16
2023-03-17T15:02:15.835Z,13.13
2023-03-17T15:03:55.623Z,13.13
2023-03-17T15:05:35.368Z,13.11
2023-03-17T15:07:15.192Z,13.09
2023-03-17T15:08:54.957Z,13.07
2023-03-17T15:10:34.725Z,13.05
2023-03-17T15:12:14.465Z,13.05
2023-03-17T15:13:54.211Z,13.03
2023-03-17T15:15:33.965Z,13.01
2023-03-17T15:17:13.719Z,13.01
2023-03-17T15:18:53.500Z,12.97
2023-03-17T15:20:33.402Z,12.96
2023-03-17T15:22:13.030Z,12.95
2023-03-17T15:23:52.779Z,12.94
2023-03-17T15:25:32.574Z,12.89
2023-03-17T15:27:12.350Z,12.86
2023-03-17T15:28:52.086Z,12.88
2023-03-17T15:30:31.841Z,12.87
2023-03-17T15:32:11.603Z,12.84
2023-03-17T15:33:51.530Z,12.81
2023-03-17T15:35:31.236Z,12.79
2023-03-17T15:37:10.883Z,12.79
2023-03-17T15:38:50.858Z,12.77
2023-03-17T15:40:30.649Z,12.72
2023-03-17T15:42:10.337Z,12.71
2023-03-17T15:43:50.119Z,12.73
2023-03-17T15:45:29.870Z,12.69
2023-03-17T15:47:09.486Z,12.67
2023-03-17T15:48:49.403Z,12.66
2023-03-17T15:50:29.020Z,12.59
2023-03-17T15:52:08.812Z,12.65
2023-03-17T15:53:48.559Z,12.63
2023-03-17T15:55:28.291Z,12.59
2023-03-17T15:57:08.063Z,12.58
2023-03-17T15:58:47.998Z,12.56
2023-03-17T16:00:27.755Z,12.56
2023-03-17T16:02:07.491Z,12.53
2023-03-17T16:03:47.286Z,12.51
2023-03-17T16:05:27.014Z,12.49
2023-03-17T16:07:06.686Z,12.47
2023-03-17T16:08:46.511Z,12.48
2023-03-17T16:10:26.287Z,12.44
2023-03-17T16:12:05.945Z,12.43
2023-03-17T16:13:45.863Z,12.41
2023-03-17T16:15:25.542Z,12.4
2023-03-17T16:17:05.285Z,12.37
2023-03-17T16:18:45.009Z,12.35
2023-03-17T16:20:24.901Z,12.32
2023-03-17T16:22:04.597Z,12.28
2023-03-17T16:23:44.295Z,12.25
2023-03-17T16:25:24.063Z,12.23
2023-03-17T16:27:03.845Z,12.21
2023-03-17T16:28:43.593Z,12.19
2023-03-17T16:30:23.393Z,12.17
2023-03-17T16:32:03.162Z,12.09
2023-03-17T16:33:42.861Z,12.11
2023-03-17T16:35:22.668Z,12.11
2023-03-17T16:37:02.466Z,12.09
2023-03-17T16:38:42.153Z,12.06
2023-03-17T16:40:22.009Z,12.02
2023-03-17T16:42:01.830Z,12.02
2023-03-17T16:43:41.537Z,11.99
2023-03-17T16:45:21.272Z,11.98
2023-03-17T16:47:01.001Z,11.94
2023-03-17T16:48:40.774Z,11.93
2023-03-17T16:50:20.638Z,11.89
2023-03-17T16:52:00.261Z,11.87
2023-03-17T16:53:40.033Z,11.82
2023-03-17T16:55:20.154Z,11.82
2023-03-17T16:56:59.580Z,11.79
2023-03-17T16:58:39.332Z,11.77
2023-03-17T17:00:19.166Z,11.76
2023-03-17T17:01:58.850Z,11.76
2023-03-17T17:03:38.637Z,11.74
2023-03-17T17:05:18.382Z,11.71
2023-03-17T17:06:58.144Z,11.67
2023-03-17T17:08:37.939Z,11.63
2023-03-17T17:10:17.718Z,11.62
2023-03-17T17:11:57.503Z,11.61
2023-03-17T17:13:37.352Z,11.59
2023-03-17T17:15:16.967Z,11.56
2023-03-17T17:16:56.782Z,11.54
2023-03-17T17:18:36.492Z,11.53
2023-03-17T17:20:16.250Z,11.49
2023-03-17T17:21:56.042Z,11.49
2023-03-17T17:23:35.900Z,11.46
2023-03-17T17:25:15.541Z,11.44
2023-03-17T17:26:55.316Z,11.43
2023-03-17T17:28:35.213Z,11.4
2023-03-17T17:30:14.867Z,11.37
2023-03-17T17:31:54.607Z,11.35
2023-03-17T17:33:34.373Z,11.3
2023-03-17T17:35:14.129Z,11.28
2023-03-17T17:36:54.018Z,11.27
2023-03-17T17:38:33.678Z,11.25
2023-03-17T17:40:13.462Z,11.25
2023-03-17T17:41:53.213Z,11.21
2023-03-17T17:43:32.965Z,11.21
2023-03-17T17:45:12.727Z,11.19
2023-03-17T17:46:52.614Z,11.19
2023-03-17T17:48:32.259Z,11.14
2023-03-17T17:50:12.004Z,11.11
2023-03-17T17:51:51.769Z,11.1
2023-03-17T17:53:31.681Z,11.09
2023-03-17T17:55:11.322Z,11.06
2023-03-17T17:56:51.044Z,11.02
2023-03-17T17:58:30.853Z,11.02
2023-03-17T18:00:10.592Z,11
2023-03-17T18:01:50.352Z,10.99
2023-03-17T18:03:30.165Z,10.97
2023-03-17T18:05:09.864Z,10.96
2023-03-17T18:06:49.639Z,10.94
2023-03-17T18:08:29.412Z,10.93
2023-03-17T18:10:09.169Z,10.93
2023-03-17T18:11:48.928Z,10.9
2023-03-17T18:13:28.711Z,10.89
2023-03-17T18:15:08.461Z,10.87
2023-03-17T18:16:48.246Z,10.86
2023-03-17T18:18:28.001Z,10.83
2023-03-17T18:20:07.749Z,10.8
2023-03-17T18:21:47.584Z,10.78
2023-03-17T18:23:27.281Z,10.76
2023-03-17T18:25:07.065Z,10.72
2023-03-17T18:26:46.817Z,10.71
2023-03-17T18:28:26.651Z,10.68
2023-03-17T18:30:06.329Z,10.67
2023-03-17T18:31:46.100Z,10.63
2023-03-17T18:33:25.869Z,10.62
2023-03-17T18:35:05.633Z,10.59
2023-03-17T18:36:45.391Z,10.57
2023-03-17T18:38:25.167Z,10.55
2023-03-17T18:40:04.915Z,10.53
2023-03-17T18:41:44.741Z,10.53
2023-03-17T18:43:24.447Z,10.49
2023-03-17T18:45:04.218Z,10.47
2023-03-17T18:46:43.985Z,10.43
2023-03-17T18:48:23.765Z,10.43
2023-03-17T18:50:03.501Z,10.42
2023-03-17T18:51:43.262Z,10.39
2023-03-17T18:53:23.023Z,10.36
2023-03-17T18:55:02.802Z,10.35
2023-03-17T18:56:42.611Z,10.32
2023-03-17T18:58:22.340Z,10.31
2023-03-17T19:00:02.078Z,10.29
2023-03-17T19:01:41.854Z,10.27
2023-03-17T19:03:21.615Z,10.26
2023-03-17T19:05:01.391Z,10.24
2023-03-17T19:06:41.162Z,10.21
2023-03-17T19:08:20.963Z,10.18
2023-03-17T19:10:00.738Z,10.2
2023-03-17T19:11:40.451Z,10.18
2023-03-17T19:13:20.215Z,10.18
2023-03-17T19:15:00.011Z,10.16
2023-03-17T19:16:39.732Z,10.14
2023-03-17T19:18:19.505Z,10.13
2023-03-17T19:19:59.244Z,10.12
2023-03-17T19:21:39.154Z,10.1
2023-03-17T19:23:18.817Z,10.09
2023-03-17T19:24:58.588Z,10.1
2023-03-17T19:26:38.300Z,10.1
2023-03-17T19:28:18.089Z,10.07
2023-03-17T19:29:57.834Z,10.05
2023-03-17T19:31:37.592Z,10.03
2023-03-17T19:33:17.352Z,10.03
2023-03-17T19:34:57.130Z,10.02
2023-03-17T19:36:36.871Z,10
2023-03-17T19:38:16.714Z,9.99
2023-03-17T19:39:56.418Z,9.99
2023-03-17T19:41:36.184Z,9.99
2023-03-17T19:43:15.943Z,9.96
2023-03-17T19:44:55.718Z,9.96
2023-03-17T19:46:35.490Z,9.95
2023-03-17T19:48:15.252Z,9.93
2023-03-17T19:49:55.051Z,9.93
2023-03-17T19:51:34.836Z,9.93
2023-03-17T19:53:14.525Z,9.93
2023-03-17T19:54:54.379Z,9.89
2023-03-17T19:56:34.135Z,9.93
2023-03-17T19:58:13.843Z,9.87
2023-03-17T19:59:53.641Z,9.87
2023-03-17T20:01:33.382Z,9.88
2023-03-17T20:03:13.128Z,9.89
2023-03-17T20:04:52.898Z,9.85
2023-03-17T20:06:32.639Z,9.85
2023-03-17T20:08:12.402Z,9.83
2023-03-17T20:09:52.176Z,9.83
2023-03-17T20:11:31.935Z,9.81
2023-03-17T20:13:11.723Z,9.81
2023-03-17T20:14:51.478Z,9.82
2023-03-17T20:16:31.216Z,9.81
2023-03-17T20:18:11.032Z,9.81
2023-03-17T20:19:50.747Z,9.8
2023-03-17T20:21:30.590Z,9.79
2023-03-17T20:23:10.274Z,9.78
2023-03-17T20:24:50.042Z,9.79
2023-03-17T20:26:29.829Z,9.78
2023-03-17T20:28:09.591Z,9.76
2023-03-17T20:29:49.429Z,9.76
2023-03-17T20:31:29.098Z,9.74
2023-03-17T20:33:08.869Z,9.74
2023-03-17T20:34:48.631Z,9.71
2023-03-17T20:36:28.388Z,9.67
2023-03-17T20:38:08.205Z,9.67
2023-03-17T20:39:47.933Z,9.66
2023-03-17T20:41:27.718Z,9.64
2023-03-17T20:43:07.456Z,9.64
2023-03-17T20:44:47.223Z,9.64
2023-03-17T20:46:26.978Z,9.6
2023-03-17T20:48:06.833Z,9.59
2023-03-17T20:49:46.519Z,9.55
2023-03-17T20:51:26.309Z,9.52
2023-03-17T20:53:06.035Z,9.5
2023-03-17T20:54:45.792Z,9.49
2023-03-17T20:56:25.555Z,9.47
2023-03-17T20:58:05.320Z,9.45
2023-03-17T20:59:45.104Z,9.45
2023-03-17T21:01:24.913Z,9.43
2023-03-17T21:03:04.608Z,9.42
2023-03-17T21:04:44.366Z,9.39
2023-03-17T21:06:24.131Z,9.35
2023-03-17T21:08:03.913Z,9.34
2023-03-17T21:09:43.663Z,9.32
2023-03-17T21:11:23.532Z,9.27
2023-03-17T21:13:03.228Z,9.24
2023-03-17T21:14:42.964Z,9.2
2023-03-17T21:16:22.712Z,9.16
2023-03-17T21:18:02.589Z,9.13
2023-03-17T21:19:42.298Z,9.09
2023-03-17T21:21:22.025Z,9.05
2023-03-17T21:23:01.795Z,9.02
2023-03-17T21:24:41.531Z,8.97
2023-03-17T21:26:21.312Z,8.97
2023-03-17T21:28:01.102Z,8.93
2023-03-17T21:29:40.853Z,8.89
2023-03-17T21:31:20.660Z,8.85
2023-03-17T21:33:00.366Z,8.82
2023-03-17T21:34:40.134Z,8.81
2023-03-17T21:36:19.881Z,8.78
2023-03-17T21:37:59.716Z,8.77
2023-03-17T21:39:39.488Z,8.74
2023-03-17T21:41:19.185Z,8.71
2023-03-17T21:42:58.930Z,8.68
2023-03-17T21:44:38.722Z,8.64
2023-03-17T21:46:18.468Z,8.62
2023-03-17T21:47:58.239Z,8.6
2023-03-17T21:49:38.044Z,8.57
2023-03-17T21:51:17.752Z,8.52
2023-03-17T21:52:57.530Z,8.51
2023-03-17T21:54:37.285Z,8.49
2023-03-17T21:56:17.057Z,8.47
2023-03-17T21:57:56.825Z,8.43